sensor_id;sensor_type;location;lat;lon;timestamp;P1;durP1;ratioP1;P2;durP2;ratioP2
12218;SDS011;6172;42.646;23.344;2022-10-16T00:00:45;12.30;;;8.47;;
12218;SDS011;6172;42.646;23.344;2022-10-16T00:03:12;11.63;;;8.17;;
12218;SDS011;6172;42.646;23.344;2022-10-16T00:05:40;12.03;;;7.87;;
12218;SDS011;6172;42.646;23.344;2022-10-16T00:08:08;10.57;;;7.93;;
12218;SDS011;6172;42.646;23.344;2022-10-16T00:10:36;11.77;;;7.60;;
12218;SDS011;6172;42.646;23.344;2022-10-16T00:13:05;14.30;;;8.03;;
12218;SDS011;6172;42.646;23.344;2022-10-16T00:15:32;13.40;;;8.23;;
12218;SDS011;6172;42.646;23.344;2022-10-16T00:18:01;11.83;;;7.57;;
12218;SDS011;6172;42.646;23.344;2022-10-16T00:20:28;13.00;;;7.97;;
12218;SDS011;6172;42.646;23.344;2022-10-16T00:22:56;9.07;;;6.90;;
12218;SDS011;6172;42.646;23.344;2022-10-16T00:25:23;12.07;;;7.77;;
12218;SDS011;6172;42.646;23.344;2022-10-16T00:27:49;12.07;;;7.70;;
12218;SDS011;6172;42.646;23.344;2022-10-16T00:30:18;10.10;;;7.70;;
12218;SDS011;6172;42.646;23.344;2022-10-16T00:32:44;11.17;;;7.50;;
12218;SDS011;6172;42.646;23.344;2022-10-16T00:35:12;12.10;;;7.53;;
12218;SDS011;6172;42.646;23.344;2022-10-16T00:37:38;9.87;;;7.93;;
12218;SDS011;6172;42.646;23.344;2022-10-16T00:40:06;9.73;;;6.80;;
12218;SDS011;6172;42.646;23.344;2022-10-16T00:42:33;11.90;;;7.77;;
12218;SDS011;6172;42.646;23.344;2022-10-16T00:45:00;11.07;;;7.60;;
12218;SDS011;6172;42.646;23.344;2022-10-16T00:47:29;10.73;;;7.50;;
12218;SDS011;6172;42.646;23.344;2022-10-16T00:50:02;10.97;;;7.93;;
12218;SDS011;6172;42.646;23.344;2022-10-16T00:52:33;9.83;;;7.17;;
12218;SDS011;6172;42.646;23.344;2022-10-16T00:55:00;11.43;;;7.87;;
12218;SDS011;6172;42.646;23.344;2022-10-16T00:57:29;12.50;;;7.70;;
12218;SDS011;6172;42.646;23.344;2022-10-16T00:59:56;9.50;;;7.27;;
12218;SDS011;6172;42.646;23.344;2022-10-16T01:02:24;9.23;;;6.93;;
12218;SDS011;6172;42.646;23.344;2022-10-16T01:04:52;12.90;;;7.50;;
12218;SDS011;6172;42.646;23.344;2022-10-16T01:07:24;9.90;;;6.67;;
12218;SDS011;6172;42.646;23.344;2022-10-16T01:10:02;12.63;;;6.77;;
12218;SDS011;6172;42.646;23.344;2022-10-16T01:12:38;11.63;;;7.30;;
12218;SDS011;6172;42.646;23.344;2022-10-16T01:15:10;9.03;;;7.00;;
12218;SDS011;6172;42.646;23.344;2022-10-16T01:17:43;9.50;;;6.67;;
12218;SDS011;6172;42.646;23.344;2022-10-16T01:20:18;10.83;;;6.97;;
12218;SDS011;6172;42.646;23.344;2022-10-16T01:22:56;8.70;;;6.03;;
12218;SDS011;6172;42.646;23.344;2022-10-16T01:25:39;9.37;;;6.80;;
12218;SDS011;6172;42.646;23.344;2022-10-16T01:28:29;10.17;;;6.37;;
12218;SDS011;6172;42.646;23.344;2022-10-16T01:31:02;9.47;;;6.10;;
12218;SDS011;6172;42.646;23.344;2022-10-16T01:33:32;8.23;;;6.00;;
12218;SDS011;6172;42.646;23.344;2022-10-16T01:36:05;8.97;;;6.40;;
12218;SDS011;6172;42.646;23.344;2022-10-16T01:38:36;8.60;;;6.73;;
12218;SDS011;6172;42.646;23.344;2022-10-16T01:41:06;9.40;;;5.97;;
12218;SDS011;6172;42.646;23.344;2022-10-16T01:43:38;9.13;;;6.40;;
12218;SDS011;6172;42.646;23.344;2022-10-16T01:46:09;9.47;;;6.97;;
12218;SDS011;6172;42.646;23.344;2022-10-16T01:48:37;8.27;;;6.53;;
12218;SDS011;6172;42.646;23.344;2022-10-16T01:51:06;8.53;;;6.03;;
12218;SDS011;6172;42.646;23.344;2022-10-16T01:53:36;9.83;;;6.20;;
12218;SDS011;6172;42.646;23.344;2022-10-16T01:56:03;10.83;;;6.57;;
12218;SDS011;6172;42.646;23.344;2022-10-16T01:58:34;8.90;;;5.87;;
12218;SDS011;6172;42.646;23.344;2022-10-16T02:01:07;7.47;;;5.47;;
12218;SDS011;6172;42.646;23.344;2022-10-16T02:03:37;6.90;;;5.50;;
12218;SDS011;6172;42.646;23.344;2022-10-16T02:06:07;7.80;;;5.77;;
12218;SDS011;6172;42.646;23.344;2022-10-16T02:08:35;8.43;;;5.40;;
12218;SDS011;6172;42.646;23.344;2022-10-16T02:11:05;9.30;;;5.33;;
12218;SDS011;6172;42.646;23.344;2022-10-16T02:13:33;10.00;;;5.90;;
12218;SDS011;6172;42.646;23.344;2022-10-16T02:16:09;9.87;;;6.00;;
12218;SDS011;6172;42.646;23.344;2022-10-16T02:18:37;8.27;;;5.37;;
12218;SDS011;6172;42.646;23.344;2022-10-16T02:21:08;6.83;;;5.40;;
12218;SDS011;6172;42.646;23.344;2022-10-16T02:23:43;7.63;;;5.97;;
12218;SDS011;6172;42.646;23.344;2022-10-16T02:26:17;6.03;;;5.00;;
12218;SDS011;6172;42.646;23.344;2022-10-16T02:28:52;8.90;;;6.13;;
12218;SDS011;6172;42.646;23.344;2022-10-16T02:31:27;9.07;;;6.00;;
12218;SDS011;6172;42.646;23.344;2022-10-16T02:33:57;7.57;;;6.50;;
12218;SDS011;6172;42.646;23.344;2022-10-16T02:36:26;10.90;;;6.67;;
12218;SDS011;6172;42.646;23.344;2022-10-16T02:38:53;10.80;;;6.27;;
12218;SDS011;6172;42.646;23.344;2022-10-16T02:41:21;9.57;;;7.23;;
12218;SDS011;6172;42.646;23.344;2022-10-16T02:43:49;10.83;;;7.13;;
12218;SDS011;6172;42.646;23.344;2022-10-16T02:46:16;11.60;;;7.67;;
12218;SDS011;6172;42.646;23.344;2022-10-16T02:48:46;10.40;;;7.50;;
12218;SDS011;6172;42.646;23.344;2022-10-16T02:51:12;14.27;;;7.33;;
12218;SDS011;6172;42.646;23.344;2022-10-16T02:53:39;12.13;;;7.43;;
12218;SDS011;6172;42.646;23.344;2022-10-16T02:56:06;13.73;;;8.47;;
12218;SDS011;6172;42.646;23.344;2022-10-16T02:58:33;11.13;;;8.23;;
12218;SDS011;6172;42.646;23.344;2022-10-16T03:01:00;13.10;;;9.03;;
12218;SDS011;6172;42.646;23.344;2022-10-16T03:03:27;13.47;;;8.87;;
12218;SDS011;6172;42.646;23.344;2022-10-16T03:05:55;12.33;;;8.43;;
12218;SDS011;6172;42.646;23.344;2022-10-16T03:08:22;12.17;;;8.67;;
12218;SDS011;6172;42.646;23.344;2022-10-16T03:10:50;11.43;;;9.03;;
12218;SDS011;6172;42.646;23.344;2022-10-16T03:13:17;12.27;;;8.87;;
12218;SDS011;6172;42.646;23.344;2022-10-16T03:15:45;12.90;;;9.30;;
12218;SDS011;6172;42.646;23.344;2022-10-16T03:18:12;12.93;;;9.00;;
12218;SDS011;6172;42.646;23.344;2022-10-16T03:20:39;12.73;;;9.23;;
12218;SDS011;6172;42.646;23.344;2022-10-16T03:23:07;11.90;;;9.00;;
12218;SDS011;6172;42.646;23.344;2022-10-16T03:25:34;13.60;;;9.03;;
12218;SDS011;6172;42.646;23.344;2022-10-16T03:28:01;17.83;;;9.73;;
12218;SDS011;6172;42.646;23.344;2022-10-16T03:30:28;15.97;;;10.43;;
12218;SDS011;6172;42.646;23.344;2022-10-16T03:32:55;13.20;;;9.33;;
12218;SDS011;6172;42.646;23.344;2022-10-16T03:35:22;13.13;;;9.20;;
12218;SDS011;6172;42.646;23.344;2022-10-16T03:37:50;15.30;;;9.83;;
12218;SDS011;6172;42.646;23.344;2022-10-16T03:40:18;13.70;;;9.33;;
12218;SDS011;6172;42.646;23.344;2022-10-16T03:42:45;16.97;;;9.37;;
12218;SDS011;6172;42.646;23.344;2022-10-16T03:45:12;14.63;;;8.23;;
12218;SDS011;6172;42.646;23.344;2022-10-16T03:47:39;17.20;;;9.10;;
12218;SDS011;6172;42.646;23.344;2022-10-16T03:50:06;14.40;;;9.03;;
12218;SDS011;6172;42.646;23.344;2022-10-16T03:52:34;12.63;;;8.87;;
12218;SDS011;6172;42.646;23.344;2022-10-16T03:55:01;16.17;;;9.93;;
12218;SDS011;6172;42.646;23.344;2022-10-16T03:57:29;13.73;;;9.20;;
12218;SDS011;6172;42.646;23.344;2022-10-16T03:59:56;13.63;;;9.00;;
12218;SDS011;6172;42.646;23.344;2022-10-16T04:02:22;12.90;;;8.50;;
12218;SDS011;6172;42.646;23.344;2022-10-16T04:04:49;18.87;;;9.10;;
12218;SDS011;6172;42.646;23.344;2022-10-16T04:07:16;15.27;;;9.20;;
12218;SDS011;6172;42.646;23.344;2022-10-16T04:09:43;15.37;;;8.83;;
12218;SDS011;6172;42.646;23.344;2022-10-16T04:12:10;16.10;;;9.30;;
12218;SDS011;6172;42.646;23.344;2022-10-16T04:14:38;18.13;;;8.83;;
12218;SDS011;6172;42.646;23.344;2022-10-16T04:17:05;17.00;;;9.43;;
12218;SDS011;6172;42.646;23.344;2022-10-16T04:19:32;15.47;;;8.17;;
12218;SDS011;6172;42.646;23.344;2022-10-16T04:21:58;13.10;;;8.67;;
12218;SDS011;6172;42.646;23.344;2022-10-16T04:24:25;19.07;;;9.50;;
12218;SDS011;6172;42.646;23.344;2022-10-16T04:26:52;13.93;;;8.40;;
12218;SDS011;6172;42.646;23.344;2022-10-16T04:29:19;21.23;;;9.00;;
12218;SDS011;6172;42.646;23.344;2022-10-16T04:31:47;23.17;;;14.90;;
12218;SDS011;6172;42.646;23.344;2022-10-16T04:34:14;26.20;;;16.27;;
12218;SDS011;6172;42.646;23.344;2022-10-16T04:36:41;25.60;;;17.73;;
12218;SDS011;6172;42.646;23.344;2022-10-16T04:39:08;24.83;;;18.17;;
12218;SDS011;6172;42.646;23.344;2022-10-16T04:41:35;25.57;;;17.17;;
12218;SDS011;6172;42.646;23.344;2022-10-16T04:44:01;24.53;;;16.83;;
12218;SDS011;6172;42.646;23.344;2022-10-16T04:46:28;27.07;;;21.50;;
12218;SDS011;6172;42.646;23.344;2022-10-16T04:48:56;30.03;;;20.17;;
12218;SDS011;6172;42.646;23.344;2022-10-16T04:51:23;28.87;;;18.50;;
12218;SDS011;6172;42.646;23.344;2022-10-16T04:53:50;27.60;;;18.47;;
12218;SDS011;6172;42.646;23.344;2022-10-16T04:56:17;24.77;;;16.47;;
12218;SDS011;6172;42.646;23.344;2022-10-16T04:58:44;28.03;;;15.40;;
12218;SDS011;6172;42.646;23.344;2022-10-16T05:01:11;16.37;;;12.70;;
12218;SDS011;6172;42.646;23.344;2022-10-16T05:03:38;21.50;;;14.57;;
12218;SDS011;6172;42.646;23.344;2022-10-16T05:06:06;22.47;;;14.77;;
12218;SDS011;6172;42.646;23.344;2022-10-16T05:08:33;21.57;;;14.57;;
12218;SDS011;6172;42.646;23.344;2022-10-16T05:11:00;16.03;;;11.80;;
12218;SDS011;6172;42.646;23.344;2022-10-16T05:13:27;14.67;;;9.97;;
12218;SDS011;6172;42.646;23.344;2022-10-16T05:15:54;21.67;;;12.50;;
12218;SDS011;6172;42.646;23.344;2022-10-16T05:18:22;19.13;;;13.47;;
12218;SDS011;6172;42.646;23.344;2022-10-16T05:20:49;19.87;;;12.97;;
12218;SDS011;6172;42.646;23.344;2022-10-16T05:23:17;19.73;;;12.17;;
12218;SDS011;6172;42.646;23.344;2022-10-16T05:25:51;20.47;;;11.67;;
12218;SDS011;6172;42.646;23.344;2022-10-16T05:28:19;19.63;;;11.70;;
12218;SDS011;6172;42.646;23.344;2022-10-16T05:30:46;16.43;;;9.47;;
12218;SDS011;6172;42.646;23.344;2022-10-16T05:33:13;13.23;;;8.60;;
12218;SDS011;6172;42.646;23.344;2022-10-16T05:35:40;11.57;;;7.83;;
12218;SDS011;6172;42.646;23.344;2022-10-16T05:38:07;11.17;;;7.90;;
12218;SDS011;6172;42.646;23.344;2022-10-16T05:40:35;11.63;;;7.67;;
12218;SDS011;6172;42.646;23.344;2022-10-16T05:43:02;12.43;;;7.90;;
12218;SDS011;6172;42.646;23.344;2022-10-16T05:45:28;10.93;;;7.50;;
12218;SDS011;6172;42.646;23.344;2022-10-16T05:47:55;12.10;;;7.93;;
12218;SDS011;6172;42.646;23.344;2022-10-16T05:50:22;11.63;;;8.30;;
12218;SDS011;6172;42.646;23.344;2022-10-16T05:52:49;11.33;;;8.40;;
12218;SDS011;6172;42.646;23.344;2022-10-16T05:55:16;11.37;;;8.03;;
12218;SDS011;6172;42.646;23.344;2022-10-16T05:57:44;13.43;;;9.33;;
12218;SDS011;6172;42.646;23.344;2022-10-16T06:00:11;13.50;;;7.60;;
12218;SDS011;6172;42.646;23.344;2022-10-16T06:02:38;11.93;;;7.13;;
12218;SDS011;6172;42.646;23.344;2022-10-16T06:05:05;10.97;;;6.20;;
12218;SDS011;6172;42.646;23.344;2022-10-16T06:07:33;8.33;;;4.80;;
12218;SDS011;6172;42.646;23.344;2022-10-16T06:10:01;5.10;;;3.97;;
12218;SDS011;6172;42.646;23.344;2022-10-16T06:12:28;6.80;;;4.10;;
12218;SDS011;6172;42.646;23.344;2022-10-16T06:14:56;6.50;;;3.93;;
12218;SDS011;6172;42.646;23.344;2022-10-16T06:17:23;4.37;;;3.70;;
12218;SDS011;6172;42.646;23.344;2022-10-16T06:19:49;4.00;;;3.70;;
12218;SDS011;6172;42.646;23.344;2022-10-16T06:22:16;4.83;;;3.77;;
12218;SDS011;6172;42.646;23.344;2022-10-16T06:24:43;4.23;;;3.30;;
12218;SDS011;6172;42.646;23.344;2022-10-16T06:27:11;5.13;;;3.50;;
12218;SDS011;6172;42.646;23.344;2022-10-16T06:29:38;7.47;;;3.80;;
12218;SDS011;6172;42.646;23.344;2022-10-16T06:32:06;4.20;;;3.80;;
12218;SDS011;6172;42.646;23.344;2022-10-16T06:34:33;5.43;;;3.80;;
12218;SDS011;6172;42.646;23.344;2022-10-16T06:36:59;8.67;;;4.10;;
12218;SDS011;6172;42.646;23.344;2022-10-16T06:39:26;6.17;;;3.87;;
12218;SDS011;6172;42.646;23.344;2022-10-16T06:41:53;5.07;;;4.07;;
12218;SDS011;6172;42.646;23.344;2022-10-16T06:44:20;4.63;;;3.70;;
12218;SDS011;6172;42.646;23.344;2022-10-16T06:46:46;5.83;;;4.23;;
12218;SDS011;6172;42.646;23.344;2022-10-16T06:49:15;6.07;;;4.07;;
12218;SDS011;6172;42.646;23.344;2022-10-16T06:51:47;5.93;;;4.40;;
12218;SDS011;6172;42.646;23.344;2022-10-16T06:54:14;4.40;;;4.00;;
12218;SDS011;6172;42.646;23.344;2022-10-16T06:56:43;4.97;;;4.47;;
12218;SDS011;6172;42.646;23.344;2022-10-16T06:59:09;4.73;;;3.57;;
12218;SDS011;6172;42.646;23.344;2022-10-16T07:01:36;4.30;;;3.90;;
12218;SDS011;6172;42.646;23.344;2022-10-16T07:04:03;5.57;;;4.10;;
12218;SDS011;6172;42.646;23.344;2022-10-16T07:06:33;4.87;;;3.97;;
12218;SDS011;6172;42.646;23.344;2022-10-16T07:09:01;4.03;;;3.70;;
12218;SDS011;6172;42.646;23.344;2022-10-16T07:11:30;6.03;;;3.67;;
12218;SDS011;6172;42.646;23.344;2022-10-16T07:13:57;6.23;;;4.03;;
12218;SDS011;6172;42.646;23.344;2022-10-16T07:16:24;5.67;;;4.17;;
12218;SDS011;6172;42.646;23.344;2022-10-16T07:18:53;4.80;;;4.07;;
12218;SDS011;6172;42.646;23.344;2022-10-16T07:21:23;5.17;;;3.93;;
12218;SDS011;6172;42.646;23.344;2022-10-16T07:23:53;4.40;;;3.40;;
12218;SDS011;6172;42.646;23.344;2022-10-16T07:26:21;4.70;;;4.17;;
12218;SDS011;6172;42.646;23.344;2022-10-16T07:28:48;6.80;;;3.90;;
12218;SDS011;6172;42.646;23.344;2022-10-16T07:31:16;4.23;;;3.83;;
12218;SDS011;6172;42.646;23.344;2022-10-16T07:33:45;5.13;;;4.53;;
12218;SDS011;6172;42.646;23.344;2022-10-16T07:36:13;6.90;;;4.30;;
12218;SDS011;6172;42.646;23.344;2022-10-16T07:38:41;7.47;;;4.97;;
12218;SDS011;6172;42.646;23.344;2022-10-16T07:41:10;5.33;;;4.70;;
12218;SDS011;6172;42.646;23.344;2022-10-16T07:43:39;9.33;;;5.30;;
12218;SDS011;6172;42.646;23.344;2022-10-16T07:46:06;6.00;;;5.40;;
12218;SDS011;6172;42.646;23.344;2022-10-16T07:48:33;7.57;;;5.60;;
12218;SDS011;6172;42.646;23.344;2022-10-16T07:51:04;9.97;;;6.30;;
12218;SDS011;6172;42.646;23.344;2022-10-16T07:53:32;9.27;;;6.67;;
12218;SDS011;6172;42.646;23.344;2022-10-16T07:55:59;9.63;;;6.50;;
12218;SDS011;6172;42.646;23.344;2022-10-16T07:58:32;6.27;;;5.67;;
12218;SDS011;6172;42.646;23.344;2022-10-16T08:01:03;8.57;;;6.10;;
12218;SDS011;6172;42.646;23.344;2022-10-16T08:03:30;8.27;;;6.20;;
12218;SDS011;6172;42.646;23.344;2022-10-16T08:06:00;9.90;;;6.37;;
12218;SDS011;6172;42.646;23.344;2022-10-16T08:08:28;7.60;;;6.80;;
12218;SDS011;6172;42.646;23.344;2022-10-16T08:10:56;9.07;;;6.53;;
12218;SDS011;6172;42.646;23.344;2022-10-16T08:13:30;8.13;;;6.20;;
12218;SDS011;6172;42.646;23.344;2022-10-16T08:15:58;9.27;;;5.60;;
12218;SDS011;6172;42.646;23.344;2022-10-16T08:18:28;9.37;;;6.27;;
12218;SDS011;6172;42.646;23.344;2022-10-16T08:20:55;7.20;;;5.63;;
12218;SDS011;6172;42.646;23.344;2022-10-16T08:23:25;8.37;;;5.30;;
12218;SDS011;6172;42.646;23.344;2022-10-16T08:25:53;6.27;;;5.37;;
12218;SDS011;6172;42.646;23.344;2022-10-16T08:28:20;10.03;;;5.20;;
12218;SDS011;6172;42.646;23.344;2022-10-16T08:30:48;6.57;;;5.23;;
12218;SDS011;6172;42.646;23.344;2022-10-16T08:33:15;5.87;;;4.87;;
12218;SDS011;6172;42.646;23.344;2022-10-16T08:35:42;10.03;;;4.77;;
12218;SDS011;6172;42.646;23.344;2022-10-16T08:38:09;6.20;;;4.00;;
12218;SDS011;6172;42.646;23.344;2022-10-16T08:40:36;5.63;;;4.07;;
12218;SDS011;6172;42.646;23.344;2022-10-16T08:46:06;5.20;;;3.47;;
12218;SDS011;6172;42.646;23.344;2022-10-16T08:48:54;3.97;;;3.47;;
12218;SDS011;6172;42.646;23.344;2022-10-16T08:51:23;5.27;;;2.57;;
12218;SDS011;6172;42.646;23.344;2022-10-16T08:53:53;2.60;;;2.40;;
12218;SDS011;6172;42.646;23.344;2022-10-16T08:56:22;4.70;;;2.80;;
12218;SDS011;6172;42.646;23.344;2022-10-16T08:58:50;5.20;;;3.05;;
12218;SDS011;6172;42.646;23.344;2022-10-16T09:01:20;2.60;;;2.40;;
12218;SDS011;6172;42.646;23.344;2022-10-16T09:03:53;5.80;;;2.80;;
12218;SDS011;6172;42.646;23.344;2022-10-16T09:06:52;3.60;;;2.10;;
12218;SDS011;6172;42.646;23.344;2022-10-16T09:09:32;3.05;;;2.45;;
12218;SDS011;6172;42.646;23.344;2022-10-16T09:12:12;3.22;;;2.35;;
12218;SDS011;6172;42.646;23.344;2022-10-16T09:14:50;2.33;;;2.08;;
12218;SDS011;6172;42.646;23.344;2022-10-16T09:17:34;3.38;;;2.20;;
12218;SDS011;6172;42.646;23.344;2022-10-16T09:20:20;2.78;;;2.50;;
12218;SDS011;6172;42.646;23.344;2022-10-16T09:22:55;2.38;;;2.00;;
12218;SDS011;6172;42.646;23.344;2022-10-16T09:25:39;3.43;;;2.70;;
12218;SDS011;6172;42.646;23.344;2022-10-16T09:28:08;2.67;;;2.23;;
12218;SDS011;6172;42.646;23.344;2022-10-16T09:30:36;3.00;;;2.00;;
12218;SDS011;6172;42.646;23.344;2022-10-16T09:33:05;3.20;;;2.47;;
12218;SDS011;6172;42.646;23.344;2022-10-16T09:35:35;4.13;;;2.10;;
12218;SDS011;6172;42.646;23.344;2022-10-16T09:38:07;1.80;;;1.70;;
12218;SDS011;6172;42.646;23.344;2022-10-16T09:40:35;4.53;;;2.43;;
12218;SDS011;6172;42.646;23.344;2022-10-16T09:43:06;3.27;;;1.83;;
12218;SDS011;6172;42.646;23.344;2022-10-16T09:45:53;2.57;;;2.10;;
12218;SDS011;6172;42.646;23.344;2022-10-16T09:48:22;2.83;;;2.03;;
12218;SDS011;6172;42.646;23.344;2022-10-16T09:50:56;4.72;;;2.30;;
12218;SDS011;6172;42.646;23.344;2022-10-16T09:53:24;5.07;;;2.38;;
12218;SDS011;6172;42.646;23.344;2022-10-16T09:56:03;5.18;;;2.53;;
12218;SDS011;6172;42.646;23.344;2022-10-16T09:58:31;3.50;;;2.30;;
12218;SDS011;6172;42.646;23.344;2022-10-16T10:00:59;3.60;;;2.28;;
12218;SDS011;6172;42.646;23.344;2022-10-16T10:03:37;2.67;;;1.90;;
12218;SDS011;6172;42.646;23.344;2022-10-16T10:06:14;2.08;;;1.90;;
12218;SDS011;6172;42.646;23.344;2022-10-16T10:08:54;2.58;;;2.38;;
12218;SDS011;6172;42.646;23.344;2022-10-16T10:17:12;2.42;;;1.60;;
12218;SDS011;6172;42.646;23.344;2022-10-16T10:19:44;3.13;;;2.20;;
12218;SDS011;6172;42.646;23.344;2022-10-16T10:22:17;6.22;;;2.55;;
12218;SDS011;6172;42.646;23.344;2022-10-16T10:24:54;2.65;;;2.05;;
12218;SDS011;6172;42.646;23.344;2022-10-16T10:27:24;2.20;;;2.00;;
12218;SDS011;6172;42.646;23.344;2022-10-16T10:29:59;2.55;;;1.88;;
12218;SDS011;6172;42.646;23.344;2022-10-16T10:32:33;4.35;;;2.17;;
12218;SDS011;6172;42.646;23.344;2022-10-16T10:35:15;3.50;;;2.47;;
12218;SDS011;6172;42.646;23.344;2022-10-16T10:37:51;2.45;;;2.25;;
12218;SDS011;6172;42.646;23.344;2022-10-16T10:40:32;5.57;;;2.35;;
12218;SDS011;6172;42.646;23.344;2022-10-16T10:43:07;3.10;;;2.53;;
12218;SDS011;6172;42.646;23.344;2022-10-16T10:45:46;4.97;;;2.65;;
12218;SDS011;6172;42.646;23.344;2022-10-16T10:48:19;4.82;;;2.30;;
12218;SDS011;6172;42.646;23.344;2022-10-16T10:50:59;3.08;;;2.15;;
12218;SDS011;6172;42.646;23.344;2022-10-16T10:53:36;4.70;;;2.57;;
12218;SDS011;6172;42.646;23.344;2022-10-16T10:56:14;2.13;;;1.92;;
12218;SDS011;6172;42.646;23.344;2022-10-16T10:58:55;2.85;;;2.05;;
12218;SDS011;6172;42.646;23.344;2022-10-16T11:01:45;3.60;;;2.13;;
12218;SDS011;6172;42.646;23.344;2022-10-16T11:04:23;2.78;;;2.08;;
12218;SDS011;6172;42.646;23.344;2022-10-16T11:07:04;2.72;;;1.50;;
12218;SDS011;6172;42.646;23.344;2022-10-16T11:09:34;2.03;;;1.63;;
12218;SDS011;6172;42.646;23.344;2022-10-16T11:12:06;3.38;;;1.60;;
12218;SDS011;6172;42.646;23.344;2022-10-16T11:14:40;1.85;;;1.73;;
12218;SDS011;6172;42.646;23.344;2022-10-16T11:17:13;2.05;;;1.65;;
12218;SDS011;6172;42.646;23.344;2022-10-16T11:19:45;1.67;;;1.58;;
12218;SDS011;6172;42.646;23.344;2022-10-16T11:22:17;1.88;;;1.67;;
12218;SDS011;6172;42.646;23.344;2022-10-16T11:24:49;3.20;;;1.52;;
12218;SDS011;6172;42.646;23.344;2022-10-16T11:27:22;1.35;;;0.93;;
12218;SDS011;6172;42.646;23.344;2022-10-16T11:29:57;1.40;;;1.30;;
12218;SDS011;6172;42.646;23.344;2022-10-16T11:32:28;2.13;;;1.00;;
12218;SDS011;6172;42.646;23.344;2022-10-16T11:35:02;3.25;;;1.58;;
12218;SDS011;6172;42.646;23.344;2022-10-16T11:37:40;1.70;;;1.10;;
12218;SDS011;6172;42.646;23.344;2022-10-16T11:40:14;1.75;;;1.33;;
12218;SDS011;6172;42.646;23.344;2022-10-16T11:42:49;2.65;;;1.35;;
12218;SDS011;6172;42.646;23.344;2022-10-16T11:45:24;1.13;;;1.00;;
12218;SDS011;6172;42.646;23.344;2022-10-16T11:47:59;1.65;;;0.85;;
12218;SDS011;6172;42.646;23.344;2022-10-16T11:50:33;2.30;;;1.00;;
12218;SDS011;6172;42.646;23.344;2022-10-16T11:53:07;2.43;;;1.20;;
12218;SDS011;6172;42.646;23.344;2022-10-16T11:55:43;1.35;;;1.25;;
12218;SDS011;6172;42.646;23.344;2022-10-16T11:58:13;2.50;;;1.50;;
12218;SDS011;6172;42.646;23.344;2022-10-16T12:00:46;1.92;;;1.45;;
12218;SDS011;6172;42.646;23.344;2022-10-16T12:03:22;2.33;;;1.42;;
12218;SDS011;6172;42.646;23.344;2022-10-16T12:06:02;1.58;;;1.45;;
12218;SDS011;6172;42.646;23.344;2022-10-16T12:08:41;3.20;;;1.67;;
12218;SDS011;6172;42.646;23.344;2022-10-16T12:11:30;2.05;;;1.50;;
12218;SDS011;6172;42.646;23.344;2022-10-16T12:14:04;1.90;;;1.15;;
12218;SDS011;6172;42.646;23.344;2022-10-16T12:16:51;2.40;;;1.00;;
12218;SDS011;6172;42.646;23.344;2022-10-16T12:19:21;2.58;;;1.17;;
12218;SDS011;6172;42.646;23.344;2022-10-16T12:21:50;1.63;;;1.30;;
12218;SDS011;6172;42.646;23.344;2022-10-16T12:24:26;2.15;;;1.15;;
12218;SDS011;6172;42.646;23.344;2022-10-16T12:26:57;1.20;;;1.10;;
12218;SDS011;6172;42.646;23.344;2022-10-16T12:29:28;1.40;;;1.00;;
12218;SDS011;6172;42.646;23.344;2022-10-16T12:31:59;1.35;;;1.15;;
12218;SDS011;6172;42.646;23.344;2022-10-16T12:34:29;1.38;;;1.27;;
12218;SDS011;6172;42.646;23.344;2022-10-16T12:37:10;1.73;;;1.25;;
12218;SDS011;6172;42.646;23.344;2022-10-16T12:39:42;1.23;;;1.13;;
12218;SDS011;6172;42.646;23.344;2022-10-16T12:42:20;2.22;;;1.35;;
12218;SDS011;6172;42.646;23.344;2022-10-16T12:44:50;1.67;;;1.30;;
12218;SDS011;6172;42.646;23.344;2022-10-16T12:47:21;1.02;;;0.80;;
12218;SDS011;6172;42.646;23.344;2022-10-16T12:49:50;1.20;;;1.10;;
12218;SDS011;6172;42.646;23.344;2022-10-16T12:52:26;1.40;;;1.25;;
12218;SDS011;6172;42.646;23.344;2022-10-16T12:55:02;1.48;;;0.90;;
12218;SDS011;6172;42.646;23.344;2022-10-16T12:57:34;1.83;;;1.20;;
12218;SDS011;6172;42.646;23.344;2022-10-16T13:00:13;2.28;;;1.10;;
12218;SDS011;6172;42.646;23.344;2022-10-16T13:03:08;2.53;;;1.20;;
12218;SDS011;6172;42.646;23.344;2022-10-16T13:05:57;1.35;;;1.10;;
12218;SDS011;6172;42.646;23.344;2022-10-16T13:08:39;1.60;;;1.00;;
12218;SDS011;6172;42.646;23.344;2022-10-16T13:11:19;1.75;;;1.30;;
12218;SDS011;6172;42.646;23.344;2022-10-16T13:14:09;3.60;;;1.52;;
12218;SDS011;6172;42.646;23.344;2022-10-16T13:16:56;2.83;;;1.58;;
12218;SDS011;6172;42.646;23.344;2022-10-16T13:19:35;3.50;;;1.50;;
12218;SDS011;6172;42.646;23.344;2022-10-16T13:22:11;3.00;;;1.23;;
12218;SDS011;6172;42.646;23.344;2022-10-16T13:24:51;1.48;;;1.17;;
12218;SDS011;6172;42.646;23.344;2022-10-16T13:27:29;2.80;;;1.55;;
12218;SDS011;6172;42.646;23.344;2022-10-16T13:30:11;4.00;;;2.05;;
12218;SDS011;6172;42.646;23.344;2022-10-16T13:32:40;2.13;;;1.55;;
12218;SDS011;6172;42.646;23.344;2022-10-16T13:35:21;1.20;;;1.10;;
12218;SDS011;6172;42.646;23.344;2022-10-16T13:38:04;2.00;;;1.38;;
12218;SDS011;6172;42.646;23.344;2022-10-16T13:40:33;1.65;;;1.55;;
12218;SDS011;6172;42.646;23.344;2022-10-16T13:43:02;3.22;;;1.30;;
12218;SDS011;6172;42.646;23.344;2022-10-16T13:45:29;1.58;;;1.13;;
12218;SDS011;6172;42.646;23.344;2022-10-16T13:48:03;3.45;;;1.52;;
12218;SDS011;6172;42.646;23.344;2022-10-16T13:50:32;2.60;;;1.63;;
12218;SDS011;6172;42.646;23.344;2022-10-16T13:53:05;1.20;;;1.10;;
12218;SDS011;6172;42.646;23.344;2022-10-16T13:55:32;1.30;;;1.20;;
12218;SDS011;6172;42.646;23.344;2022-10-16T13:58:08;1.98;;;1.30;;
12218;SDS011;6172;42.646;23.344;2022-10-16T14:00:40;2.08;;;1.30;;
12218;SDS011;6172;42.646;23.344;2022-10-16T14:03:19;2.22;;;1.42;;
12218;SDS011;6172;42.646;23.344;2022-10-16T14:05:47;2.22;;;1.30;;
12218;SDS011;6172;42.646;23.344;2022-10-16T14:08:17;2.47;;;1.23;;
12218;SDS011;6172;42.646;23.344;2022-10-16T14:10:47;4.13;;;1.63;;
12218;SDS011;6172;42.646;23.344;2022-10-16T14:13:29;1.80;;;1.30;;
12218;SDS011;6172;42.646;23.344;2022-10-16T14:16:02;1.70;;;1.60;;
12218;SDS011;6172;42.646;23.344;2022-10-16T14:18:33;7.57;;;1.95;;
12218;SDS011;6172;42.646;23.344;2022-10-16T14:21:05;1.97;;;1.63;;
12218;SDS011;6172;42.646;23.344;2022-10-16T14:23:34;3.07;;;2.17;;
12218;SDS011;6172;42.646;23.344;2022-10-16T14:26:13;4.43;;;1.77;;
12218;SDS011;6172;42.646;23.344;2022-10-16T14:28:44;2.17;;;1.40;;
12218;SDS011;6172;42.646;23.344;2022-10-16T14:33:58;3.17;;;1.20;;
12218;SDS011;6172;42.646;23.344;2022-10-16T14:36:26;2.33;;;1.20;;
12218;SDS011;6172;42.646;23.344;2022-10-16T14:38:57;2.43;;;1.63;;
12218;SDS011;6172;42.646;23.344;2022-10-16T14:41:29;1.77;;;1.40;;
12218;SDS011;6172;42.646;23.344;2022-10-16T14:44:00;3.03;;;1.43;;
12218;SDS011;6172;42.646;23.344;2022-10-16T14:46:31;1.43;;;1.33;;
12218;SDS011;6172;42.646;23.344;2022-10-16T14:49:02;2.53;;;1.50;;
12218;SDS011;6172;42.646;23.344;2022-10-16T14:51:39;2.83;;;1.30;;
12218;SDS011;6172;42.646;23.344;2022-10-16T14:54:10;3.43;;;1.60;;
12218;SDS011;6172;42.646;23.344;2022-10-16T14:56:42;2.20;;;1.60;;
12218;SDS011;6172;42.646;23.344;2022-10-16T14:59:14;3.83;;;1.40;;
12218;SDS011;6172;42.646;23.344;2022-10-16T15:01:43;2.20;;;1.50;;
12218;SDS011;6172;42.646;23.344;2022-10-16T15:04:11;3.03;;;2.17;;
12218;SDS011;6172;42.646;23.344;2022-10-16T15:06:39;4.50;;;1.80;;
12218;SDS011;6172;42.646;23.344;2022-10-16T15:09:06;5.53;;;2.20;;
12218;SDS011;6172;42.646;23.344;2022-10-16T15:11:33;2.73;;;1.50;;
12218;SDS011;6172;42.646;23.344;2022-10-16T15:14:02;3.80;;;2.00;;
12218;SDS011;6172;42.646;23.344;2022-10-16T15:16:31;4.50;;;2.37;;